Vancouver/Boundary Bay Airport

CZBB · 不列颠哥伦比亚, 加拿大

罗盘
风向 的 Vancouver/Boundary Bay Airport 7/25
风: 2 kt, 1 beaufort


2 kt
改变
0 ft 1.000 2.000 3.000 4.000 5.000
Cloud Cloud Cloud Cloud Cloud Cloud Cloud Cloud
OVC 4.600
METAR CYVR 231324Z VRB02KT 1 1/2SM BR OVC046 03/03 A3037 RMK FG5SC3 SLP285

METAR Vancouver/Boundary Bay Airport - CZBB/YDT

Vancouver/Boundary Bay Airport是,加拿大中的中型机场。 该机场位于纬度49,07533和经度-123,01098。 该机场有2条跑道: 7/25 和 12/30. 本场的ICAO机场代码为CZBB。 该机场的本地机场标识(FAA LID)为CZBB。 该机场的IATA代码为YDT。 机场在Vancouver FIR中。

该航空气象观测是针对Vancouver International Airport在2024年2月23日 05:24, 当地时间进行的。

机场观察

可变方向的风很小或没有风。

可见度为1½ mi。

有乌云密布在4.600 ft的高度。 破损或更高的上限为4.600 ft。

当前天气为薄雾。 温度为3 °C,阵风为1 °C。 露点为3 °C,相对湿度为100%。 海平面上的气压为30,37 inHg (QNH)。

白天

今天,太阳从07:05升起,在17:44降落。 这适用于Vancouver/Boundary Bay Airport,世界夏令时可能有所不同。 当地时间与世界标准时间之间的时差为-8 小时。 当前,没有夏令时有效。

公司介绍

在这个机场,你可以找到飞行学校。 这个机场上的公司有Canadian Flight Centre, Pacific Flying Club, Professional Flight Centre 和 Sea Land Air Flight Centre。

体会

到Vliegles.nl去找飞行课程,跳伞和其他飞行体验。 浏览页面,了解Vancouver/Boundary Bay Airport附近所有可用的活动。 你也可以使用搜索功能来寻找你所在地附近的特定飞行课程、跳伞或其他飞行体验。

跑道

Id 标题 侧风 逆风 侧风 %
7/25 090°-270° 2 kt 100 %
12/30 144°-324° 1 kt 2 kt 59 %

逆风成分最大的方向会被突出显示,并用于横风计算。 这并不一定意味着这个方向在使用。

乌云

4.600 ft OVC 乌云密布

温度 & 天气

天气 薄雾
温度 3 °C
露点 3 °C
相对湿度 100%
风寒 1 °C
Kp-index 1 (0-9)

评论

SLP285海平面压力为30,37 inHg (30,37 inHg)
FG5SC3

白天

日出
07:06 (1:26)
中午
12:26
日落
17:45

小工具

你想在你的网站上有一个关于Vancouver/Boundary Bay Airport的当前航空天气(METAR)的小部件吗?

显示HTML代码
?>